Andice, Texas
Current Conditions -  °F | °C
As of 5:46 PM on Saturday 25 Oct 2014 (Local Time) from KGTU Reporting Station
Clear Clear  
Wind Chill: 84°   Ceiling: Unl
Heat Index: 84°   Visibility: 10mi
Dew Point: 57°   Wind: 6mph
Humidity: 40%   Direction: NA
Pressure: 30.08"   Gusts: NA
Location:  30.6575°N, 97.7523°W
Report Text: KGTU 252246Z VRB05KT 10SM SKC 29/14 A3008
Loading
Personal Weather Stations






























Interactive Weather Map New forecast layout! Learn more

10-Day Weather Forecast

Advertisements
Track Severe Weather on mobile